sensor_id;sensor_type;location;lat;lon;timestamp;P1;durP1;ratioP1;P2;durP2;ratioP2
48835;SDS011;62581;47.342;7.908;2022-09-13T00:01:02;5.47;;;3.03;;
48835;SDS011;62581;47.342;7.908;2022-09-13T00:03:30;7.13;;;3.63;;
48835;SDS011;62581;47.342;7.908;2022-09-13T00:05:58;5.18;;;3.22;;
48835;SDS011;62581;47.342;7.908;2022-09-13T00:08:32;4.22;;;3.40;;
48835;SDS011;62581;47.342;7.908;2022-09-13T00:10:59;5.72;;;3.25;;
48835;SDS011;62581;47.342;7.908;2022-09-13T00:13:26;6.25;;;3.10;;
48835;SDS011;62581;47.342;7.908;2022-09-13T00:15:53;5.43;;;3.33;;
48835;SDS011;62581;47.342;7.908;2022-09-13T00:18:20;8.60;;;3.60;;
48835;SDS011;62581;47.342;7.908;2022-09-13T00:20:48;4.53;;;3.10;;
48835;SDS011;62581;47.342;7.908;2022-09-13T00:23:15;5.15;;;3.10;;
48835;SDS011;62581;47.342;7.908;2022-09-13T00:25:42;5.43;;;3.50;;
48835;SDS011;62581;47.342;7.908;2022-09-13T00:28:09;6.57;;;3.90;;
48835;SDS011;62581;47.342;7.908;2022-09-13T00:30:36;5.38;;;3.72;;
48835;SDS011;62581;47.342;7.908;2022-09-13T00:33:03;4.95;;;4.22;;
48835;SDS011;62581;47.342;7.908;2022-09-13T00:35:30;10.88;;;3.72;;
48835;SDS011;62581;47.342;7.908;2022-09-13T00:37:59;8.20;;;3.83;;
48835;SDS011;62581;47.342;7.908;2022-09-13T00:40:27;5.70;;;3.97;;
48835;SDS011;62581;47.342;7.908;2022-09-13T00:42:55;5.13;;;4.03;;
48835;SDS011;62581;47.342;7.908;2022-09-13T00:45:22;5.28;;;3.90;;
48835;SDS011;62581;47.342;7.908;2022-09-13T00:47:50;10.90;;;4.07;;
48835;SDS011;62581;47.342;7.908;2022-09-13T00:50:22;7.28;;;4.53;;
48835;SDS011;62581;47.342;7.908;2022-09-13T00:52:54;10.15;;;4.43;;
48835;SDS011;62581;47.342;7.908;2022-09-13T00:55:28;6.53;;;4.03;;
48835;SDS011;62581;47.342;7.908;2022-09-13T00:58:01;10.93;;;4.53;;
48835;SDS011;62581;47.342;7.908;2022-09-13T01:00:32;7.13;;;3.95;;
48835;SDS011;62581;47.342;7.908;2022-09-13T01:03:00;6.97;;;4.22;;
48835;SDS011;62581;47.342;7.908;2022-09-13T01:05:31;10.32;;;4.03;;
48835;SDS011;62581;47.342;7.908;2022-09-13T01:08:07;6.10;;;4.25;;
48835;SDS011;62581;47.342;7.908;2022-09-13T01:10:41;7.57;;;4.18;;
48835;SDS011;62581;47.342;7.908;2022-09-13T01:13:10;6.63;;;3.83;;
48835;SDS011;62581;47.342;7.908;2022-09-13T01:15:41;7.93;;;3.92;;
48835;SDS011;62581;47.342;7.908;2022-09-13T01:18:08;7.55;;;3.80;;
48835;SDS011;62581;47.342;7.908;2022-09-13T01:20:39;5.50;;;3.65;;
48835;SDS011;62581;47.342;7.908;2022-09-13T01:23:33;7.15;;;3.70;;
48835;SDS011;62581;47.342;7.908;2022-09-13T01:26:29;9.85;;;3.42;;
48835;SDS011;62581;47.342;7.908;2022-09-13T01:32:17;6.57;;;4.18;;
48835;SDS011;62581;47.342;7.908;2022-09-13T01:34:53;5.45;;;3.75;;
48835;SDS011;62581;47.342;7.908;2022-09-13T01:37:32;5.30;;;3.70;;
48835;SDS011;62581;47.342;7.908;2022-09-13T01:40:15;5.28;;;3.40;;
48835;SDS011;62581;47.342;7.908;2022-09-13T01:43:01;10.13;;;4.43;;
48835;SDS011;62581;47.342;7.908;2022-09-13T01:45:39;6.07;;;3.90;;
48835;SDS011;62581;47.342;7.908;2022-09-13T01:48:15;8.43;;;4.22;;
48835;SDS011;62581;47.342;7.908;2022-09-13T01:50:50;6.13;;;4.13;;
48835;SDS011;62581;47.342;7.908;2022-09-13T01:53:28;8.07;;;4.50;;
48835;SDS011;62581;47.342;7.908;2022-09-13T01:56:02;5.53;;;4.07;;
48835;SDS011;62581;47.342;7.908;2022-09-13T01:58:33;8.27;;;4.65;;
48835;SDS011;62581;47.342;7.908;2022-09-13T02:01:06;5.60;;;3.92;;
48835;SDS011;62581;47.342;7.908;2022-09-13T02:03:42;6.20;;;4.85;;
48835;SDS011;62581;47.342;7.908;2022-09-13T02:06:14;8.60;;;4.60;;
48835;SDS011;62581;47.342;7.908;2022-09-13T02:08:45;7.22;;;4.45;;
48835;SDS011;62581;47.342;7.908;2022-09-13T02:11:15;5.50;;;3.95;;
48835;SDS011;62581;47.342;7.908;2022-09-13T02:13:45;8.43;;;4.18;;
48835;SDS011;62581;47.342;7.908;2022-09-13T02:16:18;5.20;;;3.67;;
48835;SDS011;62581;47.342;7.908;2022-09-13T02:18:51;5.38;;;3.95;;
48835;SDS011;62581;47.342;7.908;2022-09-13T02:21:24;10.43;;;4.05;;
48835;SDS011;62581;47.342;7.908;2022-09-13T02:23:57;11.80;;;4.32;;
48835;SDS011;62581;47.342;7.908;2022-09-13T02:26:27;6.32;;;3.88;;
48835;SDS011;62581;47.342;7.908;2022-09-13T02:28:56;5.90;;;4.35;;
48835;SDS011;62581;47.342;7.908;2022-09-13T02:31:28;8.00;;;5.13;;
48835;SDS011;62581;47.342;7.908;2022-09-13T02:34:00;7.88;;;4.85;;
48835;SDS011;62581;47.342;7.908;2022-09-13T02:36:31;6.55;;;4.60;;
48835;SDS011;62581;47.342;7.908;2022-09-13T02:39:05;7.75;;;4.72;;
48835;SDS011;62581;47.342;7.908;2022-09-13T02:41:36;8.52;;;4.90;;
48835;SDS011;62581;47.342;7.908;2022-09-13T02:44:10;6.95;;;4.47;;
48835;SDS011;62581;47.342;7.908;2022-09-13T02:46:44;8.43;;;4.57;;
48835;SDS011;62581;47.342;7.908;2022-09-13T02:49:24;9.55;;;5.35;;
48835;SDS011;62581;47.342;7.908;2022-09-13T02:51:58;6.30;;;4.80;;
48835;SDS011;62581;47.342;7.908;2022-09-13T02:54:33;5.25;;;4.45;;
48835;SDS011;62581;47.342;7.908;2022-09-13T02:57:07;8.35;;;4.95;;
48835;SDS011;62581;47.342;7.908;2022-09-13T02:59:40;8.95;;;4.95;;
48835;SDS011;62581;47.342;7.908;2022-09-13T03:02:07;7.85;;;5.00;;
48835;SDS011;62581;47.342;7.908;2022-09-13T03:04:39;8.00;;;5.53;;
48835;SDS011;62581;47.342;7.908;2022-09-13T03:07:09;6.47;;;5.13;;
48835;SDS011;62581;47.342;7.908;2022-09-13T03:09:36;5.45;;;4.88;;
48835;SDS011;62581;47.342;7.908;2022-09-13T03:12:22;6.22;;;5.15;;
48835;SDS011;62581;47.342;7.908;2022-09-13T03:15:03;5.63;;;4.50;;
48835;SDS011;62581;47.342;7.908;2022-09-13T03:17:40;8.25;;;4.78;;
48835;SDS011;62581;47.342;7.908;2022-09-13T03:20:22;7.35;;;4.68;;
48835;SDS011;62581;47.342;7.908;2022-09-13T03:23:01;12.27;;;4.95;;
48835;SDS011;62581;47.342;7.908;2022-09-13T03:25:53;5.28;;;4.65;;
48835;SDS011;62581;47.342;7.908;2022-09-13T03:29:01;7.75;;;4.72;;
48835;SDS011;62581;47.342;7.908;2022-09-13T03:31:37;10.10;;;5.07;;
48835;SDS011;62581;47.342;7.908;2022-09-13T03:34:09;7.78;;;5.25;;
48835;SDS011;62581;47.342;7.908;2022-09-13T03:36:43;11.02;;;5.93;;
48835;SDS011;62581;47.342;7.908;2022-09-13T03:39:16;7.85;;;5.47;;
48835;SDS011;62581;47.342;7.908;2022-09-13T03:41:52;6.00;;;5.22;;
48835;SDS011;62581;47.342;7.908;2022-09-13T03:44:24;13.15;;;6.32;;
48835;SDS011;62581;47.342;7.908;2022-09-13T03:46:54;8.48;;;5.47;;
48835;SDS011;62581;47.342;7.908;2022-09-13T03:49:25;6.70;;;5.82;;
48835;SDS011;62581;47.342;7.908;2022-09-13T03:51:55;10.13;;;5.45;;
48835;SDS011;62581;47.342;7.908;2022-09-13T03:54:23;7.95;;;5.18;;
48835;SDS011;62581;47.342;7.908;2022-09-13T03:57:05;10.43;;;4.97;;
48835;SDS011;62581;47.342;7.908;2022-09-13T03:59:34;6.65;;;5.15;;
48835;SDS011;62581;47.342;7.908;2022-09-13T04:02:03;7.65;;;4.72;;
48835;SDS011;62581;47.342;7.908;2022-09-13T04:04:30;7.13;;;5.13;;
48835;SDS011;62581;47.342;7.908;2022-09-13T04:06:59;6.13;;;4.93;;
48835;SDS011;62581;47.342;7.908;2022-09-13T04:09:27;10.45;;;5.50;;
48835;SDS011;62581;47.342;7.908;2022-09-13T04:11:54;8.85;;;5.55;;
48835;SDS011;62581;47.342;7.908;2022-09-13T04:14:21;9.95;;;5.95;;
48835;SDS011;62581;47.342;7.908;2022-09-13T04:16:50;8.05;;;5.55;;
48835;SDS011;62581;47.342;7.908;2022-09-13T04:19:18;10.23;;;5.40;;
48835;SDS011;62581;47.342;7.908;2022-09-13T04:21:46;11.77;;;5.72;;
48835;SDS011;62581;47.342;7.908;2022-09-13T04:24:14;11.13;;;5.30;;
48835;SDS011;62581;47.342;7.908;2022-09-13T04:29:09;10.45;;;6.28;;
48835;SDS011;62581;47.342;7.908;2022-09-13T04:31:36;10.77;;;5.63;;
48835;SDS011;62581;47.342;7.908;2022-09-13T04:34:03;15.30;;;5.85;;
48835;SDS011;62581;47.342;7.908;2022-09-13T04:36:30;14.77;;;5.72;;
48835;SDS011;62581;47.342;7.908;2022-09-13T04:38:57;7.28;;;5.90;;
48835;SDS011;62581;47.342;7.908;2022-09-13T04:41:26;10.77;;;6.57;;
48835;SDS011;62581;47.342;7.908;2022-09-13T04:43:53;11.43;;;6.05;;
48835;SDS011;62581;47.342;7.908;2022-09-13T04:46:21;8.23;;;5.93;;
48835;SDS011;62581;47.342;7.908;2022-09-13T04:48:48;9.38;;;5.72;;
48835;SDS011;62581;47.342;7.908;2022-09-13T04:51:16;9.07;;;5.93;;
48835;SDS011;62581;47.342;7.908;2022-09-13T04:53:43;14.85;;;5.63;;
48835;SDS011;62581;47.342;7.908;2022-09-13T04:56:10;11.73;;;5.28;;
48835;SDS011;62581;47.342;7.908;2022-09-13T04:58:40;12.73;;;6.38;;
48835;SDS011;62581;47.342;7.908;2022-09-13T05:01:07;10.90;;;5.68;;
48835;SDS011;62581;47.342;7.908;2022-09-13T05:03:35;12.20;;;7.13;;
48835;SDS011;62581;47.342;7.908;2022-09-13T05:06:03;10.15;;;5.88;;
48835;SDS011;62581;47.342;7.908;2022-09-13T05:08:31;12.57;;;5.65;;
48835;SDS011;62581;47.342;7.908;2022-09-13T05:10:58;6.40;;;4.93;;
48835;SDS011;62581;47.342;7.908;2022-09-13T05:13:26;13.30;;;5.90;;
48835;SDS011;62581;47.342;7.908;2022-09-13T05:15:55;7.72;;;5.07;;
48835;SDS011;62581;47.342;7.908;2022-09-13T05:18:24;9.07;;;5.55;;
48835;SDS011;62581;47.342;7.908;2022-09-13T05:20:52;8.07;;;5.28;;
48835;SDS011;62581;47.342;7.908;2022-09-13T05:25:51;10.30;;;5.32;;
48835;SDS011;62581;47.342;7.908;2022-09-13T05:28:20;11.98;;;5.90;;
48835;SDS011;62581;47.342;7.908;2022-09-13T05:30:54;10.52;;;5.25;;
48835;SDS011;62581;47.342;7.908;2022-09-13T05:33:22;9.95;;;5.22;;
48835;SDS011;62581;47.342;7.908;2022-09-13T05:35:49;9.27;;;5.70;;
48835;SDS011;62581;47.342;7.908;2022-09-13T05:38:16;12.23;;;5.80;;
48835;SDS011;62581;47.342;7.908;2022-09-13T05:40:43;9.77;;;5.50;;
48835;SDS011;62581;47.342;7.908;2022-09-13T05:43:11;9.48;;;5.13;;
48835;SDS011;62581;47.342;7.908;2022-09-13T05:45:38;14.02;;;5.50;;
48835;SDS011;62581;47.342;7.908;2022-09-13T05:48:06;11.40;;;5.68;;
48835;SDS011;62581;47.342;7.908;2022-09-13T05:50:36;8.65;;;5.57;;
48835;SDS011;62581;47.342;7.908;2022-09-13T05:53:03;8.82;;;5.40;;
48835;SDS011;62581;47.342;7.908;2022-09-13T05:55:30;10.40;;;4.88;;
48835;SDS011;62581;47.342;7.908;2022-09-13T05:57:58;10.02;;;5.85;;
48835;SDS011;62581;47.342;7.908;2022-09-13T06:00:27;9.90;;;5.10;;
48835;SDS011;62581;47.342;7.908;2022-09-13T06:02:55;10.38;;;5.28;;
48835;SDS011;62581;47.342;7.908;2022-09-13T06:05:24;9.65;;;5.65;;
48835;SDS011;62581;47.342;7.908;2022-09-13T06:07:51;11.15;;;6.72;;
48835;SDS011;62581;47.342;7.908;2022-09-13T06:10:18;11.27;;;5.53;;
48835;SDS011;62581;47.342;7.908;2022-09-13T06:12:45;15.57;;;5.88;;
48835;SDS011;62581;47.342;7.908;2022-09-13T06:15:12;10.88;;;6.47;;
48835;SDS011;62581;47.342;7.908;2022-09-13T06:17:39;11.77;;;5.85;;
48835;SDS011;62581;47.342;7.908;2022-09-13T06:20:07;8.52;;;5.80;;
48835;SDS011;62581;47.342;7.908;2022-09-13T06:22:36;16.45;;;5.90;;
48835;SDS011;62581;47.342;7.908;2022-09-13T06:25:04;10.55;;;5.18;;
48835;SDS011;62581;47.342;7.908;2022-09-13T06:27:31;11.60;;;5.38;;
48835;SDS011;62581;47.342;7.908;2022-09-13T06:29:58;11.32;;;5.38;;
48835;SDS011;62581;47.342;7.908;2022-09-13T06:32:25;8.48;;;5.38;;
48835;SDS011;62581;47.342;7.908;2022-09-13T06:34:52;11.88;;;5.55;;
48835;SDS011;62581;47.342;7.908;2022-09-13T06:37:19;13.85;;;6.50;;
48835;SDS011;62581;47.342;7.908;2022-09-13T06:39:47;12.90;;;6.03;;
48835;SDS011;62581;47.342;7.908;2022-09-13T06:42:14;10.85;;;5.75;;
48835;SDS011;62581;47.342;7.908;2022-09-13T06:44:41;11.63;;;5.75;;
48835;SDS011;62581;47.342;7.908;2022-09-13T06:47:10;8.68;;;5.25;;
48835;SDS011;62581;47.342;7.908;2022-09-13T06:49:36;11.18;;;5.50;;
48835;SDS011;62581;47.342;7.908;2022-09-13T06:52:03;14.73;;;6.07;;
48835;SDS011;62581;47.342;7.908;2022-09-13T06:54:30;15.18;;;5.95;;
48835;SDS011;62581;47.342;7.908;2022-09-13T06:56:59;12.38;;;5.82;;
48835;SDS011;62581;47.342;7.908;2022-09-13T06:59:27;10.52;;;4.90;;
48835;SDS011;62581;47.342;7.908;2022-09-13T07:01:54;15.50;;;5.88;;
48835;SDS011;62581;47.342;7.908;2022-09-13T07:04:21;13.38;;;5.10;;
48835;SDS011;62581;47.342;7.908;2022-09-13T07:06:48;8.38;;;4.53;;
48835;SDS011;62581;47.342;7.908;2022-09-13T07:09:16;11.70;;;5.05;;
48835;SDS011;62581;47.342;7.908;2022-09-13T07:11:45;6.05;;;3.67;;
48835;SDS011;62581;47.342;7.908;2022-09-13T07:14:15;8.00;;;4.78;;
48835;SDS011;62581;47.342;7.908;2022-09-13T07:16:43;9.70;;;5.20;;
48835;SDS011;62581;47.342;7.908;2022-09-13T07:19:12;6.67;;;4.70;;
48835;SDS011;62581;47.342;7.908;2022-09-13T07:21:40;6.07;;;4.20;;
48835;SDS011;62581;47.342;7.908;2022-09-13T07:24:08;6.13;;;3.45;;
48835;SDS011;62581;47.342;7.908;2022-09-13T07:26:35;7.93;;;3.88;;
48835;SDS011;62581;47.342;7.908;2022-09-13T07:29:03;8.77;;;4.07;;
48835;SDS011;62581;47.342;7.908;2022-09-13T07:31:34;4.63;;;3.90;;
48835;SDS011;62581;47.342;7.908;2022-09-13T07:34:02;4.70;;;4.13;;
48835;SDS011;62581;47.342;7.908;2022-09-13T07:38:58;4.95;;;4.10;;
48835;SDS011;62581;47.342;7.908;2022-09-13T07:41:26;6.07;;;4.07;;
48835;SDS011;62581;47.342;7.908;2022-09-13T07:43:54;7.30;;;4.00;;
48835;SDS011;62581;47.342;7.908;2022-09-13T07:46:21;4.40;;;3.60;;
48835;SDS011;62581;47.342;7.908;2022-09-13T07:48:52;8.40;;;4.05;;
48835;SDS011;62581;47.342;7.908;2022-09-13T07:51:20;9.57;;;4.40;;
48835;SDS011;62581;47.342;7.908;2022-09-13T07:53:49;6.30;;;3.97;;
48835;SDS011;62581;47.342;7.908;2022-09-13T07:56:18;5.82;;;3.50;;
48835;SDS011;62581;47.342;7.908;2022-09-13T07:58:47;5.88;;;3.35;;
48835;SDS011;62581;47.342;7.908;2022-09-13T08:06:16;6.38;;;3.97;;
48835;SDS011;62581;47.342;7.908;2022-09-13T08:08:43;9.63;;;4.03;;
48835;SDS011;62581;47.342;7.908;2022-09-13T08:11:12;6.65;;;4.10;;
48835;SDS011;62581;47.342;7.908;2022-09-13T08:13:43;5.80;;;3.67;;
48835;SDS011;62581;47.342;7.908;2022-09-13T08:16:10;5.93;;;3.47;;
48835;SDS011;62581;47.342;7.908;2022-09-13T08:18:41;11.13;;;4.13;;
48835;SDS011;62581;47.342;7.908;2022-09-13T08:21:08;6.43;;;3.90;;
48835;SDS011;62581;47.342;7.908;2022-09-13T08:23:37;11.50;;;4.78;;
48835;SDS011;62581;47.342;7.908;2022-09-13T08:26:04;9.25;;;4.15;;
48835;SDS011;62581;47.342;7.908;2022-09-13T08:28:33;4.15;;;3.78;;
48835;SDS011;62581;47.342;7.908;2022-09-13T08:31:04;6.10;;;3.85;;
48835;SDS011;62581;47.342;7.908;2022-09-13T08:33:32;6.93;;;3.72;;
48835;SDS011;62581;47.342;7.908;2022-09-13T08:35:59;5.45;;;3.55;;
48835;SDS011;62581;47.342;7.908;2022-09-13T08:38:26;8.27;;;4.05;;
48835;SDS011;62581;47.342;7.908;2022-09-13T08:40:55;7.68;;;3.75;;
48835;SDS011;62581;47.342;7.908;2022-09-13T08:43:27;6.95;;;3.47;;
48835;SDS011;62581;47.342;7.908;2022-09-13T08:46:05;5.43;;;3.67;;
48835;SDS011;62581;47.342;7.908;2022-09-13T08:48:38;4.30;;;3.83;;
48835;SDS011;62581;47.342;7.908;2022-09-13T08:51:12;6.78;;;3.35;;
48835;SDS011;62581;47.342;7.908;2022-09-13T08:53:50;4.90;;;3.50;;
48835;SDS011;62581;47.342;7.908;2022-09-13T08:56:19;5.38;;;3.63;;
48835;SDS011;62581;47.342;7.908;2022-09-13T08:58:52;4.22;;;3.15;;
48835;SDS011;62581;47.342;7.908;2022-09-13T09:01:32;5.07;;;3.90;;
48835;SDS011;62581;47.342;7.908;2022-09-13T09:04:13;4.75;;;3.40;;
48835;SDS011;62581;47.342;7.908;2022-09-13T09:06:51;6.13;;;3.10;;
48835;SDS011;62581;47.342;7.908;2022-09-13T09:09:25;4.82;;;3.38;;
48835;SDS011;62581;47.342;7.908;2022-09-13T09:11:58;4.20;;;2.65;;
48835;SDS011;62581;47.342;7.908;2022-09-13T09:14:34;3.53;;;2.53;;
48835;SDS011;62581;47.342;7.908;2022-09-13T09:17:06;5.25;;;2.83;;
48835;SDS011;62581;47.342;7.908;2022-09-13T09:19:40;8.35;;;3.45;;
48835;SDS011;62581;47.342;7.908;2022-09-13T09:22:12;3.92;;;3.30;;
48835;SDS011;62581;47.342;7.908;2022-09-13T09:24:43;5.10;;;3.17;;
48835;SDS011;62581;47.342;7.908;2022-09-13T09:27:14;4.88;;;3.15;;
48835;SDS011;62581;47.342;7.908;2022-09-13T09:29:43;8.57;;;3.53;;
48835;SDS011;62581;47.342;7.908;2022-09-13T09:32:14;7.47;;;3.90;;
48835;SDS011;62581;47.342;7.908;2022-09-13T09:34:51;5.83;;;3.07;;
48835;SDS011;62581;47.342;7.908;2022-09-13T09:37:29;5.85;;;3.50;;
48835;SDS011;62581;47.342;7.908;2022-09-13T09:39:57;10.17;;;3.37;;
48835;SDS011;62581;47.342;7.908;2022-09-13T09:42:29;7.38;;;2.95;;
48835;SDS011;62581;47.342;7.908;2022-09-13T09:45:04;9.45;;;3.00;;
48835;SDS011;62581;47.342;7.908;2022-09-13T09:47:44;4.30;;;2.97;;
48835;SDS011;62581;47.342;7.908;2022-09-13T09:50:14;4.25;;;2.97;;
48835;SDS011;62581;47.342;7.908;2022-09-13T09:52:43;5.03;;;2.78;;
48835;SDS011;62581;47.342;7.908;2022-09-13T09:55:17;7.15;;;2.75;;
48835;SDS011;62581;47.342;7.908;2022-09-13T09:57:53;4.57;;;2.40;;
48835;SDS011;62581;47.342;7.908;2022-09-13T10:00:23;5.28;;;2.95;;
48835;SDS011;62581;47.342;7.908;2022-09-13T10:02:53;5.15;;;2.47;;
48835;SDS011;62581;47.342;7.908;2022-09-13T10:05:23;4.30;;;2.28;;
48835;SDS011;62581;47.342;7.908;2022-09-13T10:10:22;3.92;;;2.60;;
48835;SDS011;62581;47.342;7.908;2022-09-13T10:12:53;2.67;;;2.03;;
48835;SDS011;62581;47.342;7.908;2022-09-13T10:15:22;5.45;;;2.80;;
48835;SDS011;62581;47.342;7.908;2022-09-13T10:18:03;5.90;;;3.00;;
48835;SDS011;62581;47.342;7.908;2022-09-13T10:20:32;7.28;;;2.25;;
48835;SDS011;62581;47.342;7.908;2022-09-13T10:23:10;4.95;;;1.67;;
48835;SDS011;62581;47.342;7.908;2022-09-13T10:25:43;10.07;;;2.20;;
48835;SDS011;62581;47.342;7.908;2022-09-13T10:28:21;4.10;;;1.90;;
48835;SDS011;62581;47.342;7.908;2022-09-13T10:30:51;4.00;;;1.52;;
48835;SDS011;62581;47.342;7.908;2022-09-13T10:33:23;2.63;;;1.60;;
48835;SDS011;62581;47.342;7.908;2022-09-13T10:35:53;4.07;;;1.65;;
48835;SDS011;62581;47.342;7.908;2022-09-13T10:38:24;3.38;;;1.50;;
48835;SDS011;62581;47.342;7.908;2022-09-13T10:40:55;3.67;;;1.38;;
48835;SDS011;62581;47.342;7.908;2022-09-13T10:43:23;2.15;;;1.50;;
48835;SDS011;62581;47.342;7.908;2022-09-13T10:45:55;6.10;;;1.77;;
48835;SDS011;62581;47.342;7.908;2022-09-13T10:51:00;2.05;;;1.38;;
48835;SDS011;62581;47.342;7.908;2022-09-13T10:53:32;2.95;;;1.38;;
48835;SDS011;62581;47.342;7.908;2022-09-13T10:56:01;2.67;;;1.38;;
48835;SDS011;62581;47.342;7.908;2022-09-13T10:58:30;2.30;;;1.40;;
48835;SDS011;62581;47.342;7.908;2022-09-13T11:07:07;2.70;;;1.48;;
48835;SDS011;62581;47.342;7.908;2022-09-13T11:09:44;1.83;;;1.40;;
48835;SDS011;62581;47.342;7.908;2022-09-13T11:12:21;3.72;;;1.80;;
48835;SDS011;62581;47.342;7.908;2022-09-13T11:15:00;5.75;;;1.38;;
48835;SDS011;62581;47.342;7.908;2022-09-13T11:17:50;1.98;;;1.00;;
48835;SDS011;62581;47.342;7.908;2022-09-13T11:20:34;3.00;;;1.25;;
48835;SDS011;62581;47.342;7.908;2022-09-13T11:23:17;2.00;;;1.40;;
48835;SDS011;62581;47.342;7.908;2022-09-13T11:26:11;4.55;;;1.30;;
48835;SDS011;62581;47.342;7.908;2022-09-13T11:29:02;6.05;;;1.58;;
48835;SDS011;62581;47.342;7.908;2022-09-13T11:31:41;1.90;;;1.50;;
48835;SDS011;62581;47.342;7.908;2022-09-13T11:34:15;4.22;;;1.40;;
48835;SDS011;62581;47.342;7.908;2022-09-13T11:39:56;5.25;;;1.52;;
48835;SDS011;62581;47.342;7.908;2022-09-13T11:42:37;2.28;;;1.58;;
48835;SDS011;62581;47.342;7.908;2022-09-13T11:45:20;4.25;;;1.65;;
48835;SDS011;62581;47.342;7.908;2022-09-13T11:48:01;4.45;;;1.33;;
48835;SDS011;62581;47.342;7.908;2022-09-13T11:50:46;3.78;;;1.30;;
48835;SDS011;62581;47.342;7.908;2022-09-13T11:53:27;2.22;;;1.20;;
48835;SDS011;62581;47.342;7.908;2022-09-13T11:56:05;7.15;;;1.50;;
48835;SDS011;62581;47.342;7.908;2022-09-13T11:58:37;4.13;;;1.15;;
48835;SDS011;62581;47.342;7.908;2022-09-13T12:01:10;5.32;;;1.50;;
48835;SDS011;62581;47.342;7.908;2022-09-13T12:03:45;7.82;;;2.35;;
48835;SDS011;62581;47.342;7.908;2022-09-13T12:06:17;3.90;;;1.45;;
48835;SDS011;62581;47.342;7.908;2022-09-13T12:08:46;7.10;;;1.50;;
48835;SDS011;62581;47.342;7.908;2022-09-13T12:11:16;2.47;;;1.42;;
48835;SDS011;62581;47.342;7.908;2022-09-13T12:13:48;3.20;;;1.30;;
48835;SDS011;62581;47.342;7.908;2022-09-13T12:16:20;2.40;;;1.27;;
48835;SDS011;62581;47.342;7.908;2022-09-13T12:18:53;3.92;;;1.50;;
48835;SDS011;62581;47.342;7.908;2022-09-13T12:21:24;4.72;;;1.20;;
48835;SDS011;62581;47.342;7.908;2022-09-13T12:23:56;4.93;;;1.33;;
48835;SDS011;62581;47.342;7.908;2022-09-13T12:26:30;4.75;;;1.40;;
48835;SDS011;62581;47.342;7.908;2022-09-13T12:29:02;2.08;;;1.13;;
48835;SDS011;62581;47.342;7.908;2022-09-13T12:31:33;2.83;;;1.10;;
48835;SDS011;62581;47.342;7.908;2022-09-13T12:34:01;1.77;;;1.00;;
48835;SDS011;62581;47.342;7.908;2022-09-13T12:42:39;4.82;;;1.13;;
48835;SDS011;62581;47.342;7.908;2022-09-13T12:45:44;4.82;;;1.30;;
48835;SDS011;62581;47.342;7.908;2022-09-13T12:48:42;2.28;;;1.20;;
48835;SDS011;62581;47.342;7.908;2022-09-13T12:51:23;4.78;;;1.25;;
48835;SDS011;62581;47.342;7.908;2022-09-13T12:57:13;2.80;;;1.17;;
48835;SDS011;62581;47.342;7.908;2022-09-13T12:59:54;2.17;;;1.17;;
48835;SDS011;62581;47.342;7.908;2022-09-13T13:02:36;4.75;;;1.20;;
48835;SDS011;62581;47.342;7.908;2022-09-13T13:05:14;4.80;;;1.20;;
48835;SDS011;62581;47.342;7.908;2022-09-13T13:07:51;3.15;;;1.00;;
48835;SDS011;62581;47.342;7.908;2022-09-13T13:10:25;4.95;;;1.10;;
48835;SDS011;62581;47.342;7.908;2022-09-13T13:12:55;5.22;;;1.38;;
48835;SDS011;62581;47.342;7.908;2022-09-13T13:15:55;3.70;;;0.95;;
48835;SDS011;62581;47.342;7.908;2022-09-13T13:18:26;3.47;;;1.10;;
48835;SDS011;62581;47.342;7.908;2022-09-13T13:21:05;1.60;;;1.23;;
48835;SDS011;62581;47.342;7.908;2022-09-13T13:23:49;2.65;;;0.90;;
48835;SDS011;62581;47.342;7.908;2022-09-13T13:26:54;6.57;;;1.23;;
48835;SDS011;62581;47.342;7.908;2022-09-13T13:29:22;5.53;;;1.00;;
48835;SDS011;62581;47.342;7.908;2022-09-13T13:32:09;3.15;;;1.20;;
48835;SDS011;62581;47.342;7.908;2022-09-13T13:34:38;4.93;;;1.00;;
48835;SDS011;62581;47.342;7.908;2022-09-13T13:37:24;3.70;;;1.17;;
48835;SDS011;62581;47.342;7.908;2022-09-13T13:40:17;4.00;;;1.00;;
48835;SDS011;62581;47.342;7.908;2022-09-13T13:42:50;3.55;;;0.90;;
48835;SDS011;62581;47.342;7.908;2022-09-13T13:45:56;2.95;;;0.95;;
48835;SDS011;62581;47.342;7.908;2022-09-13T13:48:35;5.57;;;1.00;;
48835;SDS011;62581;47.342;7.908;2022-09-13T13:51:13;1.98;;;0.90;;
48835;SDS011;62581;47.342;7.908;2022-09-13T13:53:47;2.88;;;0.73;;
48835;SDS011;62581;47.342;7.908;2022-09-13T13:56:20;4.65;;;1.10;;
48835;SDS011;62581;47.342;7.908;2022-09-13T13:58:59;7.70;;;1.40;;
48835;SDS011;62581;47.342;7.908;2022-09-13T14:01:35;2.45;;;1.10;;
48835;SDS011;62581;47.342;7.908;2022-09-13T14:04:10;2.15;;;0.90;;
48835;SDS011;62581;47.342;7.908;2022-09-13T14:07:03;3.25;;;0.95;;
48835;SDS011;62581;47.342;7.908;2022-09-13T14:09:39;2.95;;;1.55;;
48835;SDS011;62581;47.342;7.908;2022-09-13T14:12:20;7.97;;;1.10;;
48835;SDS011;62581;47.342;7.908;2022-09-13T14:15:00;4.95;;;1.08;;
48835;SDS011;62581;47.342;7.908;2022-09-13T14:20:30;8.43;;;2.30;;
48835;SDS011;62581;47.342;7.908;2022-09-13T14:23:15;3.53;;;0.93;;
48835;SDS011;62581;47.342;7.908;2022-09-13T14:25:43;3.80;;;0.98;;
48835;SDS011;62581;47.342;7.908;2022-09-13T14:28:12;1.20;;;0.75;;
48835;SDS011;62581;47.342;7.908;2022-09-13T14:30:42;1.55;;;0.93;;
48835;SDS011;62581;47.342;7.908;2022-09-13T14:33:17;3.47;;;1.02;;
48835;SDS011;62581;47.342;7.908;2022-09-13T14:35:56;2.28;;;0.88;;
48835;SDS011;62581;47.342;7.908;2022-09-13T14:38:25;5.03;;;0.95;;
48835;SDS011;62581;47.342;7.908;2022-09-13T14:40:58;4.97;;;1.40;;
48835;SDS011;62581;47.342;7.908;2022-09-13T14:43:28;4.00;;;0.95;;
48835;SDS011;62581;47.342;7.908;2022-09-13T14:45:58;4.30;;;1.00;;
48835;SDS011;62581;47.342;7.908;2022-09-13T14:48:30;3.30;;;1.08;;
48835;SDS011;62581;47.342;7.908;2022-09-13T14:51:02;7.30;;;1.77;;
48835;SDS011;62581;47.342;7.908;2022-09-13T14:53:34;2.38;;;0.90;;
48835;SDS011;62581;47.342;7.908;2022-09-13T14:56:02;6.10;;;1.20;;
48835;SDS011;62581;47.342;7.908;2022-09-13T14:58:36;3.35;;;1.08;;
48835;SDS011;62581;47.342;7.908;2022-09-13T15:01:08;4.07;;;1.25;;
48835;SDS011;62581;47.342;7.908;2022-09-13T15:03:39;4.72;;;1.38;;
48835;SDS011;62581;47.342;7.908;2022-09-13T15:06:17;7.05;;;1.60;;
48835;SDS011;62581;47.342;7.908;2022-09-13T15:08:47;7.82;;;1.80;;
48835;SDS011;62581;47.342;7.908;2022-09-13T15:11:15;4.75;;;1.35;;
48835;SDS011;62581;47.342;7.908;2022-09-13T15:14:01;4.25;;;1.15;;
48835;SDS011;62581;47.342;7.908;2022-09-13T15:16:45;5.43;;;1.45;;
48835;SDS011;62581;47.342;7.908;2022-09-13T15:19:29;3.83;;;1.35;;
48835;SDS011;62581;47.342;7.908;2022-09-13T15:22:02;5.07;;;1.30;;
48835;SDS011;62581;47.342;7.908;2022-09-13T15:24:32;1.30;;;1.17;;
48835;SDS011;62581;47.342;7.908;2022-09-13T15:29:28;3.00;;;1.60;;
48835;SDS011;62581;47.342;7.908;2022-09-13T15:31:59;6.57;;;1.45;;
48835;SDS011;62581;47.342;7.908;2022-09-13T15:34:26;7.53;;;1.58;;
48835;SDS011;62581;47.342;7.908;2022-09-13T15:37:09;2.88;;;1.27;;
48835;SDS011;62581;47.342;7.908;2022-09-13T15:39:41;7.50;;;1.35;;
48835;SDS011;62581;47.342;7.908;2022-09-13T15:42:09;3.25;;;1.55;;
48835;SDS011;62581;47.342;7.908;2022-09-13T15:44:37;10.10;;;1.10;;
48835;SDS011;62581;47.342;7.908;2022-09-13T15:47:07;1.52;;;0.98;;
48835;SDS011;62581;47.342;7.908;2022-09-13T15:49:36;1.85;;;1.20;;
48835;SDS011;62581;47.342;7.908;2022-09-13T15:52:05;2.70;;;1.00;;
48835;SDS011;62581;47.342;7.908;2022-09-13T15:54:34;6.20;;;1.42;;
48835;SDS011;62581;47.342;7.908;2022-09-13T15:57:04;3.42;;;1.30;;
48835;SDS011;62581;47.342;7.908;2022-09-13T15:59:33;2.40;;;1.27;;
48835;SDS011;62581;47.342;7.908;2022-09-13T16:02:01;2.97;;;0.88;;